Troy Mills, IA (52344)

5:56 PM CDT on August 22, 2014 (GMT -0500)
Rural wooded area | Change Station
CLOSE
Current Station
Personal Weather Station
Location: Central City, IA
Elevation: 961 ft
Nearby Weather Stations
Active Advisory: Special Statement

Elev 961 ft 42.23 °N, 91.53 °W | Updated 3 minutes ago

Clear
Clear
86.7 °F
Feels Like 100 °F
N
0.0
Wind Variable Wind from West

Today
High -- | Low -- °F
--% Chance of Precip.
Yesterday
High -- | Low -- °F
Precip. -- in
6:21 AM 7:56 PM
Waning Crescent, 6% visible
Pressure 29.92 in
Visibility 10.0 miles
Clouds Clear
Heat Index 100 °F
Dew Point 79 °F
Humidity 77%
Rainfall 0.00 in
Snow Depth Not available.
UV 2 out of 12
Pollen 6.70 out of 12
Air Quality Not available.
Flu Activity Not available.
METAR KVTI 222235Z AUTO 21003KT 10SM CLR 33/25 A2992 RMK AO2 T03260250

More Conditions Fewer Conditions

Pressure 29.92 in
Visibility 10.0 miles
Clouds Clear
Heat Index 100 °F
Dew Point 79 °F
Humidity 77%
Rainfall 0.00 in
Snow Depth Not available.
UV 2 out of 12
Pollen 6.70 out of 12
Air Quality Not available.
Flu Activity Not available.
METAR KVTI 222235Z AUTO 21003KT 10SM CLR 33/25 A2992 RMK AO2 T03260250

More Conditions Fewer Conditions

10-Day Weather Forecast

Almanac

Astronomy

Aug. 22, 2014 Rise Set
Actual Time 6:21 AM CDT 7:56 PM CDT
Civil Twilight 5:51 AM CDT 8:26 PM CDT
Nautical Twilight 5:15 AM CDT 9:02 PM CDT
Astronomical Twilight 4:37 AM CDT 9:40 PM CDT
Moon 3:43 AM CDT 6:06 PM CDT
Length of Visible Light 14h 34m
Length of Day
13h 35m
Tomorrow will be 2m 38s shorter.
Waning Crescent, 6% of the Moon is Illuminated
Today
Waning Crescent
Aug 25
New
Sep 2
First Quarter
Sep 8
Full
Sep 15
Last Quarter

Today's Extremes

State Highs State Lows

Community

WunderPhotos

Upload Photos

1,746,278 photos uploaded!

WunderBlogs® & News

By Dr. Jeff Masters
Director of Meteorology, Weather Underground
By Kari Strenfel
Meteorologist, Weather Underground
By Christopher C. Burt
Weather Historian, Weather Underground
August 22, 2014
August 22, 2014
August 22, 2014

Nearby

Snow Depth

Station Depth Elevation
No new snow has been reported.

Earthquake Activity

City Distance Mag. Time & Date
No recent earthquake activity has been reported nearby.
Minimum magnitude displayed is 2.5.

Coastal Water Temperatures

Place Temperature
No Stations Reporting

Nearby Weather Stations